sensor_id;sensor_type;location;lat;lon;timestamp;P1;durP1;ratioP1;P2;durP2;ratioP2
14714;SDS011;7448;52.698;5.186;2022-10-24T00:01:13;5.25;;;1.75;;
14714;SDS011;7448;52.698;5.186;2022-10-24T00:03:40;6.97;;;1.40;;
14714;SDS011;7448;52.698;5.186;2022-10-24T00:06:07;6.28;;;1.77;;
14714;SDS011;7448;52.698;5.186;2022-10-24T00:08:34;2.60;;;1.40;;
14714;SDS011;7448;52.698;5.186;2022-10-24T00:11:00;5.03;;;1.35;;
14714;SDS011;7448;52.698;5.186;2022-10-24T00:13:27;5.05;;;1.65;;
14714;SDS011;7448;52.698;5.186;2022-10-24T00:15:54;4.07;;;1.50;;
14714;SDS011;7448;52.698;5.186;2022-10-24T00:18:20;6.93;;;1.70;;
14714;SDS011;7448;52.698;5.186;2022-10-24T00:20:47;5.30;;;1.80;;
14714;SDS011;7448;52.698;5.186;2022-10-24T00:23:13;3.63;;;1.55;;
14714;SDS011;7448;52.698;5.186;2022-10-24T00:25:40;4.38;;;1.60;;
14714;SDS011;7448;52.698;5.186;2022-10-24T00:28:07;7.32;;;1.98;;
14714;SDS011;7448;52.698;5.186;2022-10-24T00:30:33;15.68;;;1.90;;
14714;SDS011;7448;52.698;5.186;2022-10-24T00:33:00;9.35;;;2.20;;
14714;SDS011;7448;52.698;5.186;2022-10-24T00:35:26;6.72;;;1.80;;
14714;SDS011;7448;52.698;5.186;2022-10-24T00:37:53;1.80;;;1.52;;
14714;SDS011;7448;52.698;5.186;2022-10-24T00:40:21;5.60;;;1.83;;
14714;SDS011;7448;52.698;5.186;2022-10-24T00:42:48;6.45;;;1.90;;
14714;SDS011;7448;52.698;5.186;2022-10-24T00:48:00;10.52;;;2.20;;
14714;SDS011;7448;52.698;5.186;2022-10-24T00:50:26;4.35;;;1.90;;
14714;SDS011;7448;52.698;5.186;2022-10-24T00:52:53;4.47;;;2.00;;
14714;SDS011;7448;52.698;5.186;2022-10-24T00:55:20;6.57;;;2.03;;
14714;SDS011;7448;52.698;5.186;2022-10-24T00:57:48;5.15;;;2.33;;
14714;SDS011;7448;52.698;5.186;2022-10-24T01:00:18;9.70;;;3.17;;
14714;SDS011;7448;52.698;5.186;2022-10-24T01:02:45;6.97;;;2.38;;
14714;SDS011;7448;52.698;5.186;2022-10-24T01:05:11;10.38;;;2.60;;
14714;SDS011;7448;52.698;5.186;2022-10-24T01:13:21;8.18;;;2.55;;
14714;SDS011;7448;52.698;5.186;2022-10-24T01:23:29;8.55;;;2.63;;
14714;SDS011;7448;52.698;5.186;2022-10-24T01:28:40;6.03;;;2.20;;
14714;SDS011;7448;52.698;5.186;2022-10-24T01:31:22;8.65;;;2.28;;
14714;SDS011;7448;52.698;5.186;2022-10-24T01:33:52;12.85;;;2.70;;
14714;SDS011;7448;52.698;5.186;2022-10-24T01:36:27;6.22;;;2.40;;
14714;SDS011;7448;52.698;5.186;2022-10-24T01:38:58;11.32;;;2.55;;
14714;SDS011;7448;52.698;5.186;2022-10-24T01:41:27;10.30;;;2.55;;
14714;SDS011;7448;52.698;5.186;2022-10-24T01:46:59;8.43;;;2.85;;
14714;SDS011;7448;52.698;5.186;2022-10-24T01:49:29;7.53;;;3.00;;
14714;SDS011;7448;52.698;5.186;2022-10-24T01:51:58;10.45;;;2.35;;
14714;SDS011;7448;52.698;5.186;2022-10-24T01:54:26;7.20;;;2.42;;
14714;SDS011;7448;52.698;5.186;2022-10-24T01:56:53;5.93;;;2.40;;
14714;SDS011;7448;52.698;5.186;2022-10-24T02:04:24;7.45;;;2.15;;
14714;SDS011;7448;52.698;5.186;2022-10-24T02:06:52;8.50;;;2.30;;
14714;SDS011;7448;52.698;5.186;2022-10-24T02:09:19;8.88;;;3.17;;
14714;SDS011;7448;52.698;5.186;2022-10-24T02:11:46;7.82;;;2.80;;
14714;SDS011;7448;52.698;5.186;2022-10-24T02:14:14;7.28;;;2.17;;
14714;SDS011;7448;52.698;5.186;2022-10-24T02:16:43;9.98;;;2.38;;
14714;SDS011;7448;52.698;5.186;2022-10-24T02:19:09;7.28;;;2.08;;
14714;SDS011;7448;52.698;5.186;2022-10-24T02:21:37;11.32;;;2.17;;
14714;SDS011;7448;52.698;5.186;2022-10-24T02:29:25;15.10;;;2.50;;
14714;SDS011;7448;52.698;5.186;2022-10-24T02:31:52;8.57;;;1.85;;
14714;SDS011;7448;52.698;5.186;2022-10-24T02:34:20;5.63;;;1.70;;
14714;SDS011;7448;52.698;5.186;2022-10-24T02:36:47;8.68;;;2.25;;
14714;SDS011;7448;52.698;5.186;2022-10-24T02:39:15;7.65;;;2.22;;
14714;SDS011;7448;52.698;5.186;2022-10-24T02:41:42;9.18;;;1.85;;
14714;SDS011;7448;52.698;5.186;2022-10-24T02:44:09;8.65;;;2.63;;
14714;SDS011;7448;52.698;5.186;2022-10-24T02:46:37;5.38;;;1.98;;
14714;SDS011;7448;52.698;5.186;2022-10-24T02:49:04;5.75;;;2.20;;
14714;SDS011;7448;52.698;5.186;2022-10-24T02:51:32;2.95;;;1.75;;
14714;SDS011;7448;52.698;5.186;2022-10-24T02:54:00;4.03;;;1.90;;
14714;SDS011;7448;52.698;5.186;2022-10-24T02:56:27;6.47;;;1.83;;
14714;SDS011;7448;52.698;5.186;2022-10-24T02:58:54;13.85;;;2.17;;
14714;SDS011;7448;52.698;5.186;2022-10-24T03:01:21;6.70;;;1.92;;
14714;SDS011;7448;52.698;5.186;2022-10-24T03:03:47;11.88;;;2.33;;
14714;SDS011;7448;52.698;5.186;2022-10-24T03:06:14;7.57;;;2.20;;
14714;SDS011;7448;52.698;5.186;2022-10-24T03:08:40;8.88;;;2.00;;
14714;SDS011;7448;52.698;5.186;2022-10-24T03:11:07;4.85;;;2.00;;
14714;SDS011;7448;52.698;5.186;2022-10-24T03:13:35;6.45;;;1.98;;
14714;SDS011;7448;52.698;5.186;2022-10-24T03:16:01;4.70;;;2.00;;
14714;SDS011;7448;52.698;5.186;2022-10-24T03:18:29;7.05;;;2.85;;
14714;SDS011;7448;52.698;5.186;2022-10-24T03:20:55;9.50;;;2.03;;
14714;SDS011;7448;52.698;5.186;2022-10-24T03:23:22;4.38;;;1.55;;
14714;SDS011;7448;52.698;5.186;2022-10-24T03:25:56;6.35;;;1.88;;
14714;SDS011;7448;52.698;5.186;2022-10-24T03:28:23;11.45;;;2.05;;
14714;SDS011;7448;52.698;5.186;2022-10-24T03:30:49;6.53;;;2.35;;
14714;SDS011;7448;52.698;5.186;2022-10-24T03:33:17;10.63;;;2.03;;
14714;SDS011;7448;52.698;5.186;2022-10-24T03:35:44;4.15;;;1.65;;
14714;SDS011;7448;52.698;5.186;2022-10-24T03:38:11;8.40;;;1.95;;
14714;SDS011;7448;52.698;5.186;2022-10-24T03:40:37;6.72;;;1.92;;
14714;SDS011;7448;52.698;5.186;2022-10-24T03:43:04;5.57;;;1.63;;
14714;SDS011;7448;52.698;5.186;2022-10-24T03:45:30;8.00;;;2.90;;
14714;SDS011;7448;52.698;5.186;2022-10-24T03:47:57;4.88;;;1.98;;
14714;SDS011;7448;52.698;5.186;2022-10-24T03:50:23;7.60;;;2.83;;
14714;SDS011;7448;52.698;5.186;2022-10-24T03:52:50;3.80;;;1.85;;
14714;SDS011;7448;52.698;5.186;2022-10-24T03:55:16;6.78;;;2.22;;
14714;SDS011;7448;52.698;5.186;2022-10-24T03:57:43;3.17;;;1.65;;
14714;SDS011;7448;52.698;5.186;2022-10-24T04:00:09;8.73;;;1.95;;
14714;SDS011;7448;52.698;5.186;2022-10-24T04:02:36;5.68;;;1.83;;
14714;SDS011;7448;52.698;5.186;2022-10-24T04:05:03;6.18;;;1.95;;
14714;SDS011;7448;52.698;5.186;2022-10-24T04:07:29;5.90;;;2.13;;
14714;SDS011;7448;52.698;5.186;2022-10-24T04:09:56;6.60;;;1.90;;
14714;SDS011;7448;52.698;5.186;2022-10-24T04:12:22;4.28;;;1.67;;
14714;SDS011;7448;52.698;5.186;2022-10-24T04:14:49;8.75;;;1.70;;
14714;SDS011;7448;52.698;5.186;2022-10-24T04:17:15;5.90;;;1.58;;
14714;SDS011;7448;52.698;5.186;2022-10-24T04:19:42;6.15;;;2.00;;
14714;SDS011;7448;52.698;5.186;2022-10-24T04:22:09;7.40;;;1.60;;
14714;SDS011;7448;52.698;5.186;2022-10-24T04:24:35;6.85;;;1.80;;
14714;SDS011;7448;52.698;5.186;2022-10-24T04:27:04;3.58;;;1.50;;
14714;SDS011;7448;52.698;5.186;2022-10-24T04:29:31;4.82;;;1.70;;
14714;SDS011;7448;52.698;5.186;2022-10-24T04:31:57;7.50;;;1.65;;
14714;SDS011;7448;52.698;5.186;2022-10-24T04:34:24;6.05;;;1.77;;
14714;SDS011;7448;52.698;5.186;2022-10-24T04:36:50;15.30;;;1.42;;
14714;SDS011;7448;52.698;5.186;2022-10-24T04:39:17;3.83;;;1.40;;
14714;SDS011;7448;52.698;5.186;2022-10-24T04:41:45;5.40;;;1.40;;
14714;SDS011;7448;52.698;5.186;2022-10-24T04:44:12;6.45;;;1.35;;
14714;SDS011;7448;52.698;5.186;2022-10-24T04:46:38;8.45;;;1.75;;
14714;SDS011;7448;52.698;5.186;2022-10-24T04:49:04;4.55;;;1.35;;
14714;SDS011;7448;52.698;5.186;2022-10-24T04:51:31;5.00;;;1.58;;
14714;SDS011;7448;52.698;5.186;2022-10-24T04:53:57;9.40;;;1.50;;
14714;SDS011;7448;52.698;5.186;2022-10-24T04:56:24;13.45;;;1.60;;
14714;SDS011;7448;52.698;5.186;2022-10-24T04:58:51;5.15;;;1.38;;
14714;SDS011;7448;52.698;5.186;2022-10-24T05:01:17;7.22;;;1.50;;
14714;SDS011;7448;52.698;5.186;2022-10-24T05:03:44;4.50;;;1.40;;
14714;SDS011;7448;52.698;5.186;2022-10-24T05:06:10;12.82;;;1.80;;
14714;SDS011;7448;52.698;5.186;2022-10-24T05:08:37;7.88;;;1.20;;
14714;SDS011;7448;52.698;5.186;2022-10-24T05:11:03;4.18;;;1.33;;
14714;SDS011;7448;52.698;5.186;2022-10-24T05:13:30;7.97;;;1.20;;
14714;SDS011;7448;52.698;5.186;2022-10-24T05:15:57;6.60;;;1.48;;
14714;SDS011;7448;52.698;5.186;2022-10-24T05:18:23;10.00;;;1.35;;
14714;SDS011;7448;52.698;5.186;2022-10-24T05:20:49;9.52;;;1.40;;
14714;SDS011;7448;52.698;5.186;2022-10-24T05:23:16;7.20;;;1.63;;
14714;SDS011;7448;52.698;5.186;2022-10-24T05:25:42;8.77;;;1.40;;
14714;SDS011;7448;52.698;5.186;2022-10-24T05:28:09;3.40;;;1.45;;
14714;SDS011;7448;52.698;5.186;2022-10-24T05:30:35;8.10;;;1.52;;
14714;SDS011;7448;52.698;5.186;2022-10-24T05:33:02;7.25;;;1.20;;
14714;SDS011;7448;52.698;5.186;2022-10-24T05:35:28;8.43;;;0.90;;
14714;SDS011;7448;52.698;5.186;2022-10-24T05:37:55;8.15;;;1.17;;
14714;SDS011;7448;52.698;5.186;2022-10-24T05:40:21;5.38;;;1.27;;
14714;SDS011;7448;52.698;5.186;2022-10-24T05:42:49;4.78;;;1.35;;
14714;SDS011;7448;52.698;5.186;2022-10-24T05:45:16;5.93;;;1.20;;
14714;SDS011;7448;52.698;5.186;2022-10-24T05:47:43;4.55;;;1.15;;
14714;SDS011;7448;52.698;5.186;2022-10-24T05:50:09;12.35;;;2.10;;
14714;SDS011;7448;52.698;5.186;2022-10-24T05:52:36;7.80;;;1.48;;
14714;SDS011;7448;52.698;5.186;2022-10-24T05:55:03;5.45;;;1.35;;
14714;SDS011;7448;52.698;5.186;2022-10-24T05:57:30;7.53;;;1.42;;
14714;SDS011;7448;52.698;5.186;2022-10-24T05:59:56;6.43;;;1.10;;
14714;SDS011;7448;52.698;5.186;2022-10-24T06:02:23;7.13;;;1.08;;
14714;SDS011;7448;52.698;5.186;2022-10-24T06:04:51;6.47;;;1.10;;
14714;SDS011;7448;52.698;5.186;2022-10-24T06:07:19;11.55;;;1.50;;
14714;SDS011;7448;52.698;5.186;2022-10-24T06:09:45;5.18;;;0.93;;
14714;SDS011;7448;52.698;5.186;2022-10-24T06:12:12;5.82;;;1.08;;
14714;SDS011;7448;52.698;5.186;2022-10-24T06:14:39;7.85;;;0.95;;
14714;SDS011;7448;52.698;5.186;2022-10-24T06:17:05;6.60;;;1.02;;
14714;SDS011;7448;52.698;5.186;2022-10-24T06:19:34;6.28;;;1.20;;
14714;SDS011;7448;52.698;5.186;2022-10-24T06:22:01;6.72;;;1.63;;
14714;SDS011;7448;52.698;5.186;2022-10-24T06:24:28;8.88;;;1.33;;
14714;SDS011;7448;52.698;5.186;2022-10-24T06:26:54;6.90;;;1.02;;
14714;SDS011;7448;52.698;5.186;2022-10-24T06:29:21;6.05;;;0.93;;
14714;SDS011;7448;52.698;5.186;2022-10-24T06:31:47;4.57;;;1.02;;
14714;SDS011;7448;52.698;5.186;2022-10-24T06:34:14;6.25;;;1.20;;
14714;SDS011;7448;52.698;5.186;2022-10-24T06:36:40;10.30;;;1.55;;
14714;SDS011;7448;52.698;5.186;2022-10-24T06:39:07;6.47;;;1.42;;
14714;SDS011;7448;52.698;5.186;2022-10-24T06:41:33;8.85;;;1.25;;
14714;SDS011;7448;52.698;5.186;2022-10-24T06:44:00;4.28;;;1.27;;
14714;SDS011;7448;52.698;5.186;2022-10-24T06:46:27;12.25;;;2.05;;
14714;SDS011;7448;52.698;5.186;2022-10-24T06:48:53;12.50;;;1.52;;
14714;SDS011;7448;52.698;5.186;2022-10-24T06:51:21;13.63;;;1.23;;
14714;SDS011;7448;52.698;5.186;2022-10-24T06:53:47;9.48;;;1.40;;
14714;SDS011;7448;52.698;5.186;2022-10-24T06:56:14;6.78;;;1.55;;
14714;SDS011;7448;52.698;5.186;2022-10-24T06:58:42;9.48;;;1.40;;
14714;SDS011;7448;52.698;5.186;2022-10-24T07:01:10;6.35;;;1.02;;
14714;SDS011;7448;52.698;5.186;2022-10-24T07:03:37;6.50;;;0.95;;
14714;SDS011;7448;52.698;5.186;2022-10-24T07:06:11;7.50;;;1.08;;
14714;SDS011;7448;52.698;5.186;2022-10-24T07:08:39;7.13;;;1.30;;
14714;SDS011;7448;52.698;5.186;2022-10-24T07:11:05;10.07;;;1.30;;
14714;SDS011;7448;52.698;5.186;2022-10-24T07:13:32;6.78;;;1.08;;
14714;SDS011;7448;52.698;5.186;2022-10-24T07:15:58;8.77;;;1.10;;
14714;SDS011;7448;52.698;5.186;2022-10-24T07:18:25;7.10;;;1.33;;
14714;SDS011;7448;52.698;5.186;2022-10-24T07:20:51;6.68;;;1.25;;
14714;SDS011;7448;52.698;5.186;2022-10-24T07:23:18;7.38;;;1.15;;
14714;SDS011;7448;52.698;5.186;2022-10-24T07:25:45;7.25;;;1.33;;
14714;SDS011;7448;52.698;5.186;2022-10-24T07:28:11;9.15;;;1.17;;
14714;SDS011;7448;52.698;5.186;2022-10-24T07:30:38;8.80;;;1.70;;
14714;SDS011;7448;52.698;5.186;2022-10-24T07:33:04;5.10;;;1.52;;
14714;SDS011;7448;52.698;5.186;2022-10-24T07:35:32;6.38;;;1.90;;
14714;SDS011;7448;52.698;5.186;2022-10-24T07:37:59;6.38;;;1.48;;
14714;SDS011;7448;52.698;5.186;2022-10-24T07:40:25;3.92;;;1.10;;
14714;SDS011;7448;52.698;5.186;2022-10-24T07:42:52;7.38;;;1.08;;
14714;SDS011;7448;52.698;5.186;2022-10-24T07:45:18;13.80;;;1.77;;
14714;SDS011;7448;52.698;5.186;2022-10-24T07:47:45;10.98;;;1.60;;
14714;SDS011;7448;52.698;5.186;2022-10-24T07:50:12;7.10;;;2.28;;
14714;SDS011;7448;52.698;5.186;2022-10-24T07:52:41;5.38;;;1.30;;
14714;SDS011;7448;52.698;5.186;2022-10-24T07:55:08;7.45;;;0.93;;
14714;SDS011;7448;52.698;5.186;2022-10-24T07:57:35;5.35;;;1.20;;
14714;SDS011;7448;52.698;5.186;2022-10-24T08:00:02;7.53;;;1.17;;
14714;SDS011;7448;52.698;5.186;2022-10-24T08:02:29;6.07;;;1.70;;
14714;SDS011;7448;52.698;5.186;2022-10-24T08:04:55;5.43;;;1.15;;
14714;SDS011;7448;52.698;5.186;2022-10-24T08:07:21;6.32;;;1.13;;
14714;SDS011;7448;52.698;5.186;2022-10-24T08:09:48;12.48;;;2.25;;
14714;SDS011;7448;52.698;5.186;2022-10-24T08:12:16;5.63;;;1.33;;
14714;SDS011;7448;52.698;5.186;2022-10-24T08:14:43;6.88;;;1.48;;
14714;SDS011;7448;52.698;5.186;2022-10-24T08:17:09;7.32;;;1.50;;
14714;SDS011;7448;52.698;5.186;2022-10-24T08:19:36;8.90;;;1.70;;
14714;SDS011;7448;52.698;5.186;2022-10-24T08:22:06;3.88;;;1.30;;
14714;SDS011;7448;52.698;5.186;2022-10-24T08:24:33;4.93;;;1.50;;
14714;SDS011;7448;52.698;5.186;2022-10-24T08:26:59;7.22;;;1.20;;
14714;SDS011;7448;52.698;5.186;2022-10-24T08:29:25;7.20;;;1.70;;
14714;SDS011;7448;52.698;5.186;2022-10-24T08:31:52;8.75;;;1.75;;
14714;SDS011;7448;52.698;5.186;2022-10-24T08:34:19;9.38;;;1.70;;
14714;SDS011;7448;52.698;5.186;2022-10-24T08:36:46;6.18;;;1.20;;
14714;SDS011;7448;52.698;5.186;2022-10-24T08:39:15;9.38;;;1.48;;
14714;SDS011;7448;52.698;5.186;2022-10-24T08:41:43;5.45;;;1.30;;
14714;SDS011;7448;52.698;5.186;2022-10-24T08:44:25;4.75;;;1.20;;
14714;SDS011;7448;52.698;5.186;2022-10-24T08:49:39;6.93;;;1.52;;
14714;SDS011;7448;52.698;5.186;2022-10-24T08:54:38;8.18;;;1.20;;
14714;SDS011;7448;52.698;5.186;2022-10-24T08:57:08;9.25;;;1.80;;
14714;SDS011;7448;52.698;5.186;2022-10-24T08:59:36;3.08;;;1.20;;
14714;SDS011;7448;52.698;5.186;2022-10-24T09:02:14;6.43;;;1.33;;
14714;SDS011;7448;52.698;5.186;2022-10-24T09:05:13;16.27;;;1.52;;
14714;SDS011;7448;52.698;5.186;2022-10-24T09:07:36;9.93;;;2.00;;
14714;SDS011;7448;52.698;5.186;2022-10-24T09:10:19;9.02;;;1.33;;
14714;SDS011;7448;52.698;5.186;2022-10-24T09:12:47;9.27;;;1.50;;
14714;SDS011;7448;52.698;5.186;2022-10-24T09:15:21;10.75;;;1.60;;
14714;SDS011;7448;52.698;5.186;2022-10-24T09:17:49;7.35;;;1.73;;
14714;SDS011;7448;52.698;5.186;2022-10-24T09:20:21;11.52;;;2.28;;
14714;SDS011;7448;52.698;5.186;2022-10-24T09:22:51;7.82;;;1.50;;
14714;SDS011;7448;52.698;5.186;2022-10-24T09:25:21;4.15;;;1.40;;
14714;SDS011;7448;52.698;5.186;2022-10-24T09:27:48;7.88;;;2.22;;
14714;SDS011;7448;52.698;5.186;2022-10-24T09:30:16;3.80;;;1.55;;
14714;SDS011;7448;52.698;5.186;2022-10-24T09:32:43;15.65;;;1.80;;
14714;SDS011;7448;52.698;5.186;2022-10-24T09:35:19;9.38;;;1.63;;
14714;SDS011;7448;52.698;5.186;2022-10-24T09:37:47;10.93;;;1.65;;
14714;SDS011;7448;52.698;5.186;2022-10-24T09:47:54;8.60;;;1.75;;
14714;SDS011;7448;52.698;5.186;2022-10-24T09:50:22;17.60;;;1.70;;
14714;SDS011;7448;52.698;5.186;2022-10-24T09:52:49;12.60;;;1.67;;
14714;SDS011;7448;52.698;5.186;2022-10-24T09:55:20;10.38;;;1.90;;
14714;SDS011;7448;52.698;5.186;2022-10-24T09:57:51;10.57;;;1.45;;
14714;SDS011;7448;52.698;5.186;2022-10-24T10:00:28;14.50;;;1.77;;
14714;SDS011;7448;52.698;5.186;2022-10-24T10:02:56;13.43;;;1.95;;
14714;SDS011;7448;52.698;5.186;2022-10-24T10:05:22;8.13;;;1.63;;
14714;SDS011;7448;52.698;5.186;2022-10-24T10:07:49;10.20;;;1.50;;
14714;SDS011;7448;52.698;5.186;2022-10-24T10:12:44;7.57;;;1.60;;
14714;SDS011;7448;52.698;5.186;2022-10-24T10:17:48;11.15;;;1.83;;
14714;SDS011;7448;52.698;5.186;2022-10-24T10:25:41;16.67;;;2.25;;
14714;SDS011;7448;52.698;5.186;2022-10-24T10:28:18;13.65;;;1.83;;
14714;SDS011;7448;52.698;5.186;2022-10-24T10:30:48;19.83;;;2.17;;
14714;SDS011;7448;52.698;5.186;2022-10-24T10:33:22;9.20;;;1.60;;
14714;SDS011;7448;52.698;5.186;2022-10-24T10:38:50;21.95;;;1.88;;
14714;SDS011;7448;52.698;5.186;2022-10-24T10:41:33;12.48;;;2.08;;
14714;SDS011;7448;52.698;5.186;2022-10-24T10:49:39;10.63;;;1.60;;
14714;SDS011;7448;52.698;5.186;2022-10-24T10:52:09;5.13;;;1.20;;
14714;SDS011;7448;52.698;5.186;2022-10-24T10:54:43;9.32;;;1.40;;
14714;SDS011;7448;52.698;5.186;2022-10-24T11:07:51;8.50;;;1.35;;
14714;SDS011;7448;52.698;5.186;2022-10-24T11:10:25;4.95;;;1.38;;
14714;SDS011;7448;52.698;5.186;2022-10-24T11:12:52;10.73;;;1.92;;
14714;SDS011;7448;52.698;5.186;2022-10-24T11:17:57;6.57;;;1.42;;
14714;SDS011;7448;52.698;5.186;2022-10-24T11:20:47;5.90;;;1.42;;
14714;SDS011;7448;52.698;5.186;2022-10-24T11:23:13;13.15;;;1.90;;
14714;SDS011;7448;52.698;5.186;2022-10-24T11:25:53;21.45;;;2.30;;
14714;SDS011;7448;52.698;5.186;2022-10-24T11:28:26;7.88;;;1.60;;
14714;SDS011;7448;52.698;5.186;2022-10-24T11:31:11;9.13;;;1.77;;
14714;SDS011;7448;52.698;5.186;2022-10-24T11:33:46;14.82;;;1.75;;
14714;SDS011;7448;52.698;5.186;2022-10-24T11:41:26;8.82;;;1.85;;
14714;SDS011;7448;52.698;5.186;2022-10-24T11:43:54;11.40;;;1.80;;
14714;SDS011;7448;52.698;5.186;2022-10-24T11:46:23;11.80;;;1.90;;
14714;SDS011;7448;52.698;5.186;2022-10-24T11:48:56;9.75;;;1.48;;
14714;SDS011;7448;52.698;5.186;2022-10-24T11:52:23;13.13;;;1.90;;
14714;SDS011;7448;52.698;5.186;2022-10-24T11:54:29;15.88;;;2.08;;
14714;SDS011;7448;52.698;5.186;2022-10-24T11:57:01;11.52;;;1.75;;
14714;SDS011;7448;52.698;5.186;2022-10-24T11:59:29;10.70;;;1.70;;
14714;SDS011;7448;52.698;5.186;2022-10-24T12:10:09;8.00;;;1.60;;
14714;SDS011;7448;52.698;5.186;2022-10-24T12:15:25;8.40;;;1.50;;
14714;SDS011;7448;52.698;5.186;2022-10-24T12:20:24;9.57;;;1.60;;
14714;SDS011;7448;52.698;5.186;2022-10-24T12:22:51;14.25;;;1.92;;
14714;SDS011;7448;52.698;5.186;2022-10-24T12:27:56;12.32;;;1.80;;
14714;SDS011;7448;52.698;5.186;2022-10-24T12:30:24;21.05;;;2.72;;
14714;SDS011;7448;52.698;5.186;2022-10-24T12:37:55;8.68;;;1.45;;
14714;SDS011;7448;52.698;5.186;2022-10-24T12:43:12;8.57;;;1.50;;
14714;SDS011;7448;52.698;5.186;2022-10-24T12:45:39;7.50;;;1.42;;
14714;SDS011;7448;52.698;5.186;2022-10-24T12:48:39;8.10;;;1.60;;
14714;SDS011;7448;52.698;5.186;2022-10-24T12:53:41;4.45;;;1.23;;
14714;SDS011;7448;52.698;5.186;2022-10-24T12:56:17;7.57;;;1.40;;
14714;SDS011;7448;52.698;5.186;2022-10-24T12:58:44;6.25;;;1.60;;
14714;SDS011;7448;52.698;5.186;2022-10-24T13:06:57;8.85;;;1.48;;
14714;SDS011;7448;52.698;5.186;2022-10-24T13:12:21;14.05;;;1.83;;
14714;SDS011;7448;52.698;5.186;2022-10-24T13:15:24;9.90;;;1.70;;
14714;SDS011;7448;52.698;5.186;2022-10-24T13:17:57;8.02;;;1.30;;
14714;SDS011;7448;52.698;5.186;2022-10-24T13:20:29;11.65;;;1.70;;
14714;SDS011;7448;52.698;5.186;2022-10-24T13:25:39;4.93;;;1.48;;
14714;SDS011;7448;52.698;5.186;2022-10-24T13:30:45;6.88;;;1.63;;
14714;SDS011;7448;52.698;5.186;2022-10-24T13:38:43;6.43;;;1.50;;
14714;SDS011;7448;52.698;5.186;2022-10-24T13:41:11;9.95;;;1.98;;
14714;SDS011;7448;52.698;5.186;2022-10-24T13:43:40;7.80;;;1.65;;
14714;SDS011;7448;52.698;5.186;2022-10-24T13:46:08;8.00;;;1.65;;
14714;SDS011;7448;52.698;5.186;2022-10-24T13:48:37;13.75;;;1.90;;
14714;SDS011;7448;52.698;5.186;2022-10-24T13:53:48;11.48;;;1.58;;
14714;SDS011;7448;52.698;5.186;2022-10-24T13:56:16;7.68;;;1.42;;
14714;SDS011;7448;52.698;5.186;2022-10-24T13:58:43;8.70;;;1.63;;
14714;SDS011;7448;52.698;5.186;2022-10-24T14:01:15;9.35;;;1.42;;
14714;SDS011;7448;52.698;5.186;2022-10-24T14:03:42;6.22;;;1.40;;
14714;SDS011;7448;52.698;5.186;2022-10-24T14:06:09;15.45;;;1.83;;
14714;SDS011;7448;52.698;5.186;2022-10-24T14:08:37;11.65;;;2.20;;
14714;SDS011;7448;52.698;5.186;2022-10-24T14:11:06;9.63;;;1.67;;
14714;SDS011;7448;52.698;5.186;2022-10-24T14:13:35;9.75;;;1.58;;
14714;SDS011;7448;52.698;5.186;2022-10-24T14:16:04;7.97;;;1.25;;
14714;SDS011;7448;52.698;5.186;2022-10-24T14:18:32;11.43;;;1.90;;
14714;SDS011;7448;52.698;5.186;2022-10-24T14:21:01;9.82;;;2.03;;
14714;SDS011;7448;52.698;5.186;2022-10-24T14:26:04;10.80;;;2.20;;
14714;SDS011;7448;52.698;5.186;2022-10-24T14:28:33;15.82;;;1.67;;
14714;SDS011;7448;52.698;5.186;2022-10-24T14:31:00;8.20;;;1.50;;
14714;SDS011;7448;52.698;5.186;2022-10-24T14:33:28;16.13;;;1.67;;
14714;SDS011;7448;52.698;5.186;2022-10-24T14:35:56;15.45;;;2.78;;
14714;SDS011;7448;52.698;5.186;2022-10-24T14:38:23;9.77;;;1.63;;
14714;SDS011;7448;52.698;5.186;2022-10-24T14:40:50;9.95;;;2.25;;
14714;SDS011;7448;52.698;5.186;2022-10-24T14:43:20;12.13;;;1.45;;
14714;SDS011;7448;52.698;5.186;2022-10-24T14:46:20;13.85;;;1.60;;
14714;SDS011;7448;52.698;5.186;2022-10-24T14:48:50;7.03;;;1.55;;
14714;SDS011;7448;52.698;5.186;2022-10-24T14:53:46;9.20;;;1.50;;
14714;SDS011;7448;52.698;5.186;2022-10-24T14:58:44;9.57;;;1.50;;
14714;SDS011;7448;52.698;5.186;2022-10-24T15:01:16;19.08;;;2.35;;
14714;SDS011;7448;52.698;5.186;2022-10-24T15:03:51;12.32;;;1.67;;
14714;SDS011;7448;52.698;5.186;2022-10-24T15:09:02;7.40;;;1.42;;
14714;SDS011;7448;52.698;5.186;2022-10-24T15:11:29;11.25;;;2.00;;
14714;SDS011;7448;52.698;5.186;2022-10-24T15:13:57;10.98;;;1.52;;
14714;SDS011;7448;52.698;5.186;2022-10-24T15:16:30;13.57;;;1.65;;
14714;SDS011;7448;52.698;5.186;2022-10-24T15:18:57;8.48;;;1.35;;
14714;SDS011;7448;52.698;5.186;2022-10-24T15:21:24;8.85;;;1.73;;
14714;SDS011;7448;52.698;5.186;2022-10-24T15:23:52;12.23;;;1.80;;
14714;SDS011;7448;52.698;5.186;2022-10-24T15:26:24;10.63;;;1.85;;
14714;SDS011;7448;52.698;5.186;2022-10-24T15:29:02;10.60;;;1.40;;
14714;SDS011;7448;52.698;5.186;2022-10-24T15:31:30;12.60;;;2.03;;
14714;SDS011;7448;52.698;5.186;2022-10-24T15:33:57;8.45;;;2.03;;
14714;SDS011;7448;52.698;5.186;2022-10-24T15:36:26;14.10;;;2.30;;
14714;SDS011;7448;52.698;5.186;2022-10-24T15:38:54;15.68;;;2.40;;
14714;SDS011;7448;52.698;5.186;2022-10-24T15:41:23;7.65;;;1.90;;
14714;SDS011;7448;52.698;5.186;2022-10-24T15:43:50;14.63;;;2.40;;
14714;SDS011;7448;52.698;5.186;2022-10-24T15:46:17;8.32;;;2.33;;
14714;SDS011;7448;52.698;5.186;2022-10-24T15:48:43;12.80;;;2.00;;
14714;SDS011;7448;52.698;5.186;2022-10-24T15:51:14;12.65;;;2.10;;
14714;SDS011;7448;52.698;5.186;2022-10-24T15:53:41;14.95;;;1.95;;
14714;SDS011;7448;52.698;5.186;2022-10-24T15:56:08;14.27;;;2.00;;
14714;SDS011;7448;52.698;5.186;2022-10-24T15:58:36;13.35;;;1.88;;
14714;SDS011;7448;52.698;5.186;2022-10-24T16:01:03;11.27;;;2.05;;
14714;SDS011;7448;52.698;5.186;2022-10-24T16:03:30;12.07;;;2.05;;
14714;SDS011;7448;52.698;5.186;2022-10-24T16:05:57;26.63;;;2.30;;
14714;SDS011;7448;52.698;5.186;2022-10-24T16:08:24;12.38;;;2.17;;
14714;SDS011;7448;52.698;5.186;2022-10-24T16:10:51;12.68;;;1.80;;
14714;SDS011;7448;52.698;5.186;2022-10-24T16:13:19;9.48;;;2.08;;
14714;SDS011;7448;52.698;5.186;2022-10-24T16:15:46;18.67;;;2.50;;
14714;SDS011;7448;52.698;5.186;2022-10-24T16:18:13;20.55;;;2.08;;
14714;SDS011;7448;52.698;5.186;2022-10-24T16:20:39;13.05;;;2.47;;
14714;SDS011;7448;52.698;5.186;2022-10-24T16:23:06;17.17;;;2.20;;
14714;SDS011;7448;52.698;5.186;2022-10-24T16:25:34;18.73;;;2.50;;
14714;SDS011;7448;52.698;5.186;2022-10-24T16:28:01;22.38;;;1.98;;
14714;SDS011;7448;52.698;5.186;2022-10-24T16:30:28;15.63;;;2.45;;
14714;SDS011;7448;52.698;5.186;2022-10-24T16:32:55;14.63;;;2.40;;
14714;SDS011;7448;52.698;5.186;2022-10-24T16:35:26;23.30;;;3.10;;
14714;SDS011;7448;52.698;5.186;2022-10-24T16:37:54;14.40;;;2.35;;
14714;SDS011;7448;52.698;5.186;2022-10-24T16:40:20;9.57;;;2.22;;
14714;SDS011;7448;52.698;5.186;2022-10-24T16:42:51;17.55;;;2.85;;
14714;SDS011;7448;52.698;5.186;2022-10-24T16:45:19;16.55;;;3.42;;
14714;SDS011;7448;52.698;5.186;2022-10-24T16:47:46;17.33;;;2.47;;
14714;SDS011;7448;52.698;5.186;2022-10-24T16:50:13;16.38;;;2.10;;
14714;SDS011;7448;52.698;5.186;2022-10-24T16:52:40;15.13;;;2.83;;
14714;SDS011;7448;52.698;5.186;2022-10-24T16:55:07;25.95;;;2.90;;
14714;SDS011;7448;52.698;5.186;2022-10-24T16:57:34;18.98;;;2.85;;
14714;SDS011;7448;52.698;5.186;2022-10-24T17:00:00;17.67;;;2.70;;
14714;SDS011;7448;52.698;5.186;2022-10-24T17:02:26;10.88;;;2.30;;
14714;SDS011;7448;52.698;5.186;2022-10-24T17:04:53;22.63;;;3.10;;
14714;SDS011;7448;52.698;5.186;2022-10-24T17:07:19;20.83;;;3.17;;
14714;SDS011;7448;52.698;5.186;2022-10-24T17:09:46;18.15;;;3.10;;
14714;SDS011;7448;52.698;5.186;2022-10-24T17:12:12;20.33;;;3.58;;
14714;SDS011;7448;52.698;5.186;2022-10-24T17:14:39;19.55;;;3.80;;
14714;SDS011;7448;52.698;5.186;2022-10-24T17:17:07;18.23;;;3.30;;
14714;SDS011;7448;52.698;5.186;2022-10-24T17:19:34;17.23;;;3.55;;
14714;SDS011;7448;52.698;5.186;2022-10-24T17:22:00;21.40;;;3.20;;
14714;SDS011;7448;52.698;5.186;2022-10-24T17:24:27;16.67;;;3.15;;
14714;SDS011;7448;52.698;5.186;2022-10-24T17:26:54;33.28;;;3.53;;